sensor_id;sensor_type;location;lat;lon;timestamp;pressure;altitude;pressure_sealevel;temperature;humidity
76853;BME280;65825;52.232;10.566;2023-02-11T00:00:47;102187.94;;;3.65;74.88
76853;BME280;65825;52.232;10.566;2023-02-11T00:03:12;102178.56;;;3.76;75.21
76853;BME280;65825;52.232;10.566;2023-02-11T00:05:38;102174.28;;;3.78;74.92
76853;BME280;65825;52.232;10.566;2023-02-11T00:08:03;102168.06;;;3.71;75.46
76853;BME280;65825;52.232;10.566;2023-02-11T00:10:28;102166.09;;;3.61;76.31
76853;BME280;65825;52.232;10.566;2023-02-11T00:12:54;102161.78;;;3.63;76.32
76853;BME280;65825;52.232;10.566;2023-02-11T00:15:19;102167.94;;;3.67;76.48
76853;BME280;65825;52.232;10.566;2023-02-11T00:17:45;102152.41;;;3.74;76.09
76853;BME280;65825;52.232;10.566;2023-02-11T00:20:10;102149.25;;;3.89;75.39
76853;BME280;65825;52.232;10.566;2023-02-11T00:22:36;102149.28;;;3.90;75.85
76853;BME280;65825;52.232;10.566;2023-02-11T00:25:01;102126.59;;;3.88;76.01
76853;BME280;65825;52.232;10.566;2023-02-11T00:27:26;102138.78;;;3.89;75.90
76853;BME280;65825;52.232;10.566;2023-02-11T00:29:51;102149.16;;;3.86;76.08
76853;BME280;65825;52.232;10.566;2023-02-11T00:32:17;102153.53;;;3.87;76.44
76853;BME280;65825;52.232;10.566;2023-02-11T00:34:42;102154.44;;;3.87;76.64
76853;BME280;65825;52.232;10.566;2023-02-11T00:37:07;102163.28;;;3.94;76.84
76853;BME280;65825;52.232;10.566;2023-02-11T00:39:33;102148.75;;;4.11;76.21
76853;BME280;65825;52.232;10.566;2023-02-11T00:41:58;102139.19;;;4.10;76.00
76853;BME280;65825;52.232;10.566;2023-02-11T00:44:23;102147.00;;;4.10;76.37
76853;BME280;65825;52.232;10.566;2023-02-11T00:46:48;102138.34;;;4.12;76.02
76853;BME280;65825;52.232;10.566;2023-02-11T00:49:14;102137.56;;;4.18;76.26
76853;BME280;65825;52.232;10.566;2023-02-11T00:51:39;102141.03;;;4.17;76.20
76853;BME280;65825;52.232;10.566;2023-02-11T00:54:05;102144.44;;;4.11;76.49
76853;BME280;65825;52.232;10.566;2023-02-11T00:56:31;102153.09;;;4.09;77.01
76853;BME280;65825;52.232;10.566;2023-02-11T00:58:57;102150.59;;;4.15;76.60
76853;BME280;65825;52.232;10.566;2023-02-11T01:01:24;102163.69;;;4.16;76.93
76853;BME280;65825;52.232;10.566;2023-02-11T01:03:51;102162.88;;;4.19;77.34
76853;BME280;65825;52.232;10.566;2023-02-11T01:06:17;102170.69;;;4.19;77.23
76853;BME280;65825;52.232;10.566;2023-02-11T01:08:43;102176.00;;;4.23;77.45
76853;BME280;65825;52.232;10.566;2023-02-11T01:11:16;102185.66;;;4.29;77.56
76853;BME280;65825;52.232;10.566;2023-02-11T01:13:42;102188.41;;;4.36;77.61
76853;BME280;65825;52.232;10.566;2023-02-11T01:16:09;102168.38;;;4.37;77.58
76853;BME280;65825;52.232;10.566;2023-02-11T01:18:35;102163.22;;;4.41;77.54
76853;BME280;65825;52.232;10.566;2023-02-11T01:21:00;102153.66;;;4.42;77.97
76853;BME280;65825;52.232;10.566;2023-02-11T01:23:26;102152.03;;;4.48;77.78
76853;BME280;65825;52.232;10.566;2023-02-11T01:25:51;102142.44;;;4.49;78.04
76853;BME280;65825;52.232;10.566;2023-02-11T01:28:25;102129.53;;;4.59;78.41
76853;BME280;65825;52.232;10.566;2023-02-11T01:30:50;102127.94;;;4.69;77.73
76853;BME280;65825;52.232;10.566;2023-02-11T01:33:16;102127.19;;;4.76;77.98
76853;BME280;65825;52.232;10.566;2023-02-11T01:35:43;102134.09;;;4.72;78.39
76853;BME280;65825;52.232;10.566;2023-02-11T01:38:19;102131.63;;;4.81;78.20
76853;BME280;65825;52.232;10.566;2023-02-11T01:40:56;102129.94;;;4.86;78.66
76853;BME280;65825;52.232;10.566;2023-02-11T01:43:24;102121.31;;;4.92;78.87
76853;BME280;65825;52.232;10.566;2023-02-11T01:48:30;102129.41;;;5.10;79.57
76853;BME280;65825;52.232;10.566;2023-02-11T01:51:02;102121.69;;;5.19;79.72
76853;BME280;65825;52.232;10.566;2023-02-11T01:53:29;102120.88;;;5.26;79.55
76853;BME280;65825;52.232;10.566;2023-02-11T01:56:29;102123.53;;;5.27;79.15
76853;BME280;65825;52.232;10.566;2023-02-11T01:59:18;102122.75;;;5.33;79.38
76853;BME280;65825;52.232;10.566;2023-02-11T02:01:51;102110.50;;;5.30;79.64
76853;BME280;65825;52.232;10.566;2023-02-11T02:04:18;102117.47;;;5.31;79.61
76853;BME280;65825;52.232;10.566;2023-02-11T02:06:59;102114.06;;;5.38;79.54
76853;BME280;65825;52.232;10.566;2023-02-11T02:09:29;102102.69;;;5.36;79.38
76853;BME280;65825;52.232;10.566;2023-02-11T02:11:57;102103.56;;;5.35;80.29
76853;BME280;65825;52.232;10.566;2023-02-11T02:14:22;102086.97;;;5.35;80.17
76853;BME280;65825;52.232;10.566;2023-02-11T02:16:48;102085.28;;;5.40;79.87
76853;BME280;65825;52.232;10.566;2023-02-11T02:19:38;102079.16;;;5.39;80.10
76853;BME280;65825;52.232;10.566;2023-02-11T02:33:44;102070.56;;;5.51;80.72
76853;BME280;65825;52.232;10.566;2023-02-11T02:36:29;102072.34;;;5.53;80.13
76853;BME280;65825;52.232;10.566;2023-02-11T02:39:08;102082.69;;;5.44;81.03
76853;BME280;65825;52.232;10.566;2023-02-11T02:41:36;102073.13;;;5.45;81.51
76853;BME280;65825;52.232;10.566;2023-02-11T02:44:03;102066.16;;;5.47;81.23
76853;BME280;65825;52.232;10.566;2023-02-11T02:46:31;102067.91;;;5.48;81.20
76853;BME280;65825;52.232;10.566;2023-02-11T02:48:57;102062.66;;;5.45;81.10
76853;BME280;65825;52.232;10.566;2023-02-11T02:54:19;102062.66;;;5.45;82.14
76853;BME280;65825;52.232;10.566;2023-02-11T02:56:53;102057.38;;;5.40;82.58
76853;BME280;65825;52.232;10.566;2023-02-11T02:59:38;102060.88;;;5.45;81.69
76853;BME280;65825;52.232;10.566;2023-02-11T03:02:27;102059.09;;;5.40;82.06
76853;BME280;65825;52.232;10.566;2023-02-11T03:05:07;102054.78;;;5.45;82.45
76853;BME280;65825;52.232;10.566;2023-02-11T03:10:15;102059.19;;;5.47;82.36
76853;BME280;65825;52.232;10.566;2023-02-11T03:12:42;102063.56;;;5.50;82.14
76853;BME280;65825;52.232;10.566;2023-02-11T03:15:10;102062.72;;;5.51;82.11
76853;BME280;65825;52.232;10.566;2023-02-11T03:17:38;102067.94;;;5.51;82.55
76853;BME280;65825;52.232;10.566;2023-02-11T03:20:09;102071.38;;;5.44;83.10
76853;BME280;65825;52.232;10.566;2023-02-11T03:22:40;102068.72;;;5.42;83.44
76853;BME280;65825;52.232;10.566;2023-02-11T03:25:07;102068.84;;;5.51;83.16
76853;BME280;65825;52.232;10.566;2023-02-11T03:27:43;102060.88;;;5.45;83.74
76853;BME280;65825;52.232;10.566;2023-02-11T03:30:15;102065.28;;;5.48;83.74
76853;BME280;65825;52.232;10.566;2023-02-11T03:32:50;102060.94;;;5.48;83.32
76853;BME280;65825;52.232;10.566;2023-02-11T03:35:22;102060.06;;;5.49;83.84
76853;BME280;65825;52.232;10.566;2023-02-11T03:37:59;102048.72;;;5.47;83.69
76853;BME280;65825;52.232;10.566;2023-02-11T03:40:34;102047.84;;;5.48;83.63
76853;BME280;65825;52.232;10.566;2023-02-11T03:43:05;102032.09;;;5.44;84.28
76853;BME280;65825;52.232;10.566;2023-02-11T03:45:35;102046.91;;;5.40;84.04
76853;BME280;65825;52.232;10.566;2023-02-11T03:48:06;102041.72;;;5.46;84.36
76853;BME280;65825;52.232;10.566;2023-02-11T03:50:35;102047.91;;;5.54;83.84
76853;BME280;65825;52.232;10.566;2023-02-11T03:53:02;102049.66;;;5.57;83.93
76853;BME280;65825;52.232;10.566;2023-02-11T03:55:29;102050.50;;;5.53;83.91
76853;BME280;65825;52.232;10.566;2023-02-11T03:57:57;102059.38;;;5.64;83.53
76853;BME280;65825;52.232;10.566;2023-02-11T04:00:38;102061.81;;;5.50;84.07
76853;BME280;65825;52.232;10.566;2023-02-11T04:03:05;102059.25;;;5.55;84.61
76853;BME280;65825;52.232;10.566;2023-02-11T04:05:31;102059.13;;;5.44;85.24
76853;BME280;65825;52.232;10.566;2023-02-11T04:07:57;102055.69;;;5.48;85.21
76853;BME280;65825;52.232;10.566;2023-02-11T04:10:22;102065.31;;;5.51;85.50
76853;BME280;65825;52.232;10.566;2023-02-11T04:12:47;102067.06;;;5.52;85.08
76853;BME280;65825;52.232;10.566;2023-02-11T04:15:13;102065.31;;;5.49;86.06
76853;BME280;65825;52.232;10.566;2023-02-11T04:17:39;102063.56;;;5.48;86.23
76853;BME280;65825;52.232;10.566;2023-02-11T04:20:04;102058.28;;;5.44;86.66
76853;BME280;65825;52.232;10.566;2023-02-11T04:22:30;102068.69;;;5.39;87.18
76853;BME280;65825;52.232;10.566;2023-02-11T04:24:55;102066.06;;;5.38;87.09
76853;BME280;65825;52.232;10.566;2023-02-11T04:27:21;102069.53;;;5.37;87.62
76853;BME280;65825;52.232;10.566;2023-02-11T04:29:46;102065.97;;;5.32;88.11
76853;BME280;65825;52.232;10.566;2023-02-11T04:32:12;102070.31;;;5.28;88.36
76853;BME280;65825;52.232;10.566;2023-02-11T04:34:38;102072.00;;;5.25;88.89
76853;BME280;65825;52.232;10.566;2023-02-11T04:37:03;102071.19;;;5.29;88.82
76853;BME280;65825;52.232;10.566;2023-02-11T04:39:29;102082.53;;;5.28;89.36
76853;BME280;65825;52.232;10.566;2023-02-11T04:41:54;102070.28;;;5.25;89.95
76853;BME280;65825;52.232;10.566;2023-02-11T04:44:19;102077.22;;;5.23;89.98
76853;BME280;65825;52.232;10.566;2023-02-11T04:46:45;102071.94;;;5.19;90.53
76853;BME280;65825;52.232;10.566;2023-02-11T04:49:14;102067.56;;;5.19;90.92
76853;BME280;65825;52.232;10.566;2023-02-11T04:51:40;102067.66;;;5.25;90.72
76853;BME280;65825;52.232;10.566;2023-02-11T04:54:05;102070.22;;;5.21;91.03
76853;BME280;65825;52.232;10.566;2023-02-11T04:56:31;102067.56;;;5.18;90.98
76853;BME280;65825;52.232;10.566;2023-02-11T04:58:56;102061.41;;;5.14;91.65
76853;BME280;65825;52.232;10.566;2023-02-11T05:01:21;102057.78;;;5.03;92.26
76853;BME280;65825;52.232;10.566;2023-02-11T05:03:47;102055.19;;;5.05;92.45
76853;BME280;65825;52.232;10.566;2023-02-11T05:06:12;102057.78;;;5.03;92.64
76853;BME280;65825;52.232;10.566;2023-02-11T05:08:38;102054.31;;;5.06;92.65
76853;BME280;65825;52.232;10.566;2023-02-11T05:11:04;102052.72;;;5.15;92.46
76853;BME280;65825;52.232;10.566;2023-02-11T05:13:30;102040.31;;;5.02;92.53
76853;BME280;65825;52.232;10.566;2023-02-11T05:15:56;102044.69;;;5.02;92.95
76853;BME280;65825;52.232;10.566;2023-02-11T05:18:21;102029.94;;;5.07;92.66
76853;BME280;65825;52.232;10.566;2023-02-11T05:20:47;102037.69;;;5.02;92.82
76853;BME280;65825;52.232;10.566;2023-02-11T05:23:12;102036.97;;;5.12;92.44
76853;BME280;65825;52.232;10.566;2023-02-11T05:25:37;102031.72;;;5.12;92.27
76853;BME280;65825;52.232;10.566;2023-02-11T05:28:03;102041.25;;;5.07;92.45
76853;BME280;65825;52.232;10.566;2023-02-11T05:30:29;102037.09;;;5.23;91.68
76853;BME280;65825;52.232;10.566;2023-02-11T05:32:55;102043.09;;;5.13;92.07
76853;BME280;65825;52.232;10.566;2023-02-11T05:35:20;102050.91;;;5.11;92.49
76853;BME280;65825;52.232;10.566;2023-02-11T05:37:45;102051.88;;;5.18;91.88
76853;BME280;65825;52.232;10.566;2023-02-11T05:40:10;102044.84;;;5.17;92.21
76853;BME280;65825;52.232;10.566;2023-02-11T05:42:36;102049.28;;;5.22;91.45
76853;BME280;65825;52.232;10.566;2023-02-11T05:45:02;102050.94;;;5.16;91.53
76853;BME280;65825;52.232;10.566;2023-02-11T05:47:28;102034.53;;;5.29;90.95
76853;BME280;65825;52.232;10.566;2023-02-11T05:49:53;102041.53;;;5.30;90.88
76853;BME280;65825;52.232;10.566;2023-02-11T05:52:19;102037.00;;;5.17;91.53
76853;BME280;65825;52.232;10.566;2023-02-11T05:54:44;102030.06;;;5.19;91.21
76853;BME280;65825;52.232;10.566;2023-02-11T05:57:10;102028.38;;;5.24;91.26
76853;BME280;65825;52.232;10.566;2023-02-11T05:59:37;102041.47;;;5.24;90.77
76853;BME280;65825;52.232;10.566;2023-02-11T06:02:02;102031.94;;;5.30;90.98
76853;BME280;65825;52.232;10.566;2023-02-11T06:04:28;102031.06;;;5.30;90.37
76853;BME280;65825;52.232;10.566;2023-02-11T06:06:53;102035.41;;;5.31;90.42
76853;BME280;65825;52.232;10.566;2023-02-11T06:09:18;102043.31;;;5.32;90.23
76853;BME280;65825;52.232;10.566;2023-02-11T06:11:43;102041.56;;;5.33;90.00
76853;BME280;65825;52.232;10.566;2023-02-11T06:14:09;102035.47;;;5.34;89.91
76853;BME280;65825;52.232;10.566;2023-02-11T06:16:35;102027.69;;;5.43;89.61
76853;BME280;65825;52.232;10.566;2023-02-11T06:19:00;102020.69;;;5.39;90.08
76853;BME280;65825;52.232;10.566;2023-02-11T06:21:25;102019.00;;;5.47;88.96
76853;BME280;65825;52.232;10.566;2023-02-11T06:23:50;102010.28;;;5.45;89.44
76853;BME280;65825;52.232;10.566;2023-02-11T06:26:20;102012.81;;;5.37;89.62
76853;BME280;65825;52.232;10.566;2023-02-11T06:28:46;102014.56;;;5.38;89.58
76853;BME280;65825;52.232;10.566;2023-02-11T06:31:12;102022.38;;;5.37;89.26
76853;BME280;65825;52.232;10.566;2023-02-11T06:33:38;102015.41;;;5.36;89.49
76853;BME280;65825;52.232;10.566;2023-02-11T06:36:08;102019.00;;;5.44;88.83
76853;BME280;65825;52.232;10.566;2023-02-11T06:38:36;102022.53;;;5.49;88.76
76853;BME280;65825;52.232;10.566;2023-02-11T06:41:01;102022.59;;;5.55;88.63
76853;BME280;65825;52.232;10.566;2023-02-11T06:43:26;102021.81;;;5.63;88.27
76853;BME280;65825;52.232;10.566;2023-02-11T06:45:53;102023.41;;;5.49;89.08
76853;BME280;65825;52.232;10.566;2023-02-11T06:48:19;102034.81;;;5.56;88.58
76853;BME280;65825;52.232;10.566;2023-02-11T06:50:44;102043.56;;;5.56;89.11
76853;BME280;65825;52.232;10.566;2023-02-11T06:53:10;102036.69;;;5.67;88.25
76853;BME280;65825;52.232;10.566;2023-02-11T06:55:35;102025.31;;;5.65;88.16
76853;BME280;65825;52.232;10.566;2023-02-11T06:58:00;102034.06;;;5.66;88.41
76853;BME280;65825;52.232;10.566;2023-02-11T07:00:25;102032.38;;;5.72;88.30
76853;BME280;65825;52.232;10.566;2023-02-11T07:02:53;102031.63;;;5.81;87.29
76853;BME280;65825;52.232;10.566;2023-02-11T07:05:18;102041.25;;;5.83;87.38
76853;BME280;65825;52.232;10.566;2023-02-11T07:07:43;102039.38;;;5.73;88.54
76853;BME280;65825;52.232;10.566;2023-02-11T07:10:09;102041.09;;;5.73;88.22
76853;BME280;65825;52.232;10.566;2023-02-11T07:12:34;102041.13;;;5.76;87.97
76853;BME280;65825;52.232;10.566;2023-02-11T07:14:59;102037.66;;;5.77;88.07
76853;BME280;65825;52.232;10.566;2023-02-11T07:17:25;102036.91;;;5.87;87.73
76853;BME280;65825;52.232;10.566;2023-02-11T07:19:50;102043.88;;;5.85;87.10
76853;BME280;65825;52.232;10.566;2023-02-11T07:22:15;102043.06;;;5.92;87.16
76853;BME280;65825;52.232;10.566;2023-02-11T07:24:40;102040.41;;;5.87;86.88
76853;BME280;65825;52.232;10.566;2023-02-11T07:27:06;102040.41;;;5.90;86.89
76853;BME280;65825;52.232;10.566;2023-02-11T07:29:31;102035.09;;;5.80;87.68
76853;BME280;65825;52.232;10.566;2023-02-11T07:31:57;102036.91;;;5.88;87.39
76853;BME280;65825;52.232;10.566;2023-02-11T07:34:22;102026.47;;;5.93;87.22
76853;BME280;65825;52.232;10.566;2023-02-11T07:36:47;102031.72;;;5.93;86.69
76853;BME280;65825;52.232;10.566;2023-02-11T07:39:13;102024.69;;;5.90;87.30
76853;BME280;65825;52.232;10.566;2023-02-11T07:41:39;102020.38;;;5.95;87.34
76853;BME280;65825;52.232;10.566;2023-02-11T07:44:07;102015.22;;;6.04;86.18
76853;BME280;65825;52.232;10.566;2023-02-11T07:46:33;102026.56;;;6.02;86.83
76853;BME280;65825;52.232;10.566;2023-02-11T07:48:59;102023.97;;;6.08;85.98
76853;BME280;65825;52.232;10.566;2023-02-11T07:51:27;102028.38;;;6.12;85.78
76853;BME280;65825;52.232;10.566;2023-02-11T07:53:55;102024.88;;;6.13;85.88
76853;BME280;65825;52.232;10.566;2023-02-11T07:56:22;102032.81;;;6.22;85.61
76853;BME280;65825;52.232;10.566;2023-02-11T07:58:48;102050.22;;;6.12;86.21
76853;BME280;65825;52.232;10.566;2023-02-11T08:01:23;102039.84;;;6.27;84.90
76853;BME280;65825;52.232;10.566;2023-02-11T08:03:50;102047.66;;;6.17;86.28
76853;BME280;65825;52.232;10.566;2023-02-11T08:06:17;102053.75;;;6.17;86.05
76853;BME280;65825;52.232;10.566;2023-02-11T08:08:43;102048.53;;;6.16;85.68
76853;BME280;65825;52.232;10.566;2023-02-11T08:11:14;102053.84;;;6.28;85.69
76853;BME280;65825;52.232;10.566;2023-02-11T08:13:39;102067.78;;;6.21;85.69
76853;BME280;65825;52.232;10.566;2023-02-11T08:16:05;102060.00;;;6.33;85.51
76853;BME280;65825;52.232;10.566;2023-02-11T08:18:31;102061.63;;;6.19;86.16
76853;BME280;65825;52.232;10.566;2023-02-11T08:21:06;102058.19;;;6.24;85.74
76853;BME280;65825;52.232;10.566;2023-02-11T08:23:31;102061.69;;;6.26;86.32
76853;BME280;65825;52.232;10.566;2023-02-11T08:26:04;102062.63;;;6.36;85.34
76853;BME280;65825;52.232;10.566;2023-02-11T08:28:30;102072.28;;;6.37;86.17
76853;BME280;65825;52.232;10.566;2023-02-11T08:30:56;102068.75;;;6.35;85.24
76853;BME280;65825;52.232;10.566;2023-02-11T08:33:21;102075.75;;;6.37;85.18
76853;BME280;65825;52.232;10.566;2023-02-11T08:35:46;102069.63;;;6.31;85.87
76853;BME280;65825;52.232;10.566;2023-02-11T08:38:13;102070.59;;;6.51;84.77
76853;BME280;65825;52.232;10.566;2023-02-11T08:40:39;102077.63;;;6.53;85.22
76853;BME280;65825;52.232;10.566;2023-02-11T08:43:04;102068.84;;;6.47;85.67
76853;BME280;65825;52.232;10.566;2023-02-11T08:45:29;102069.78;;;6.56;85.46
76853;BME280;65825;52.232;10.566;2023-02-11T08:47:54;102062.78;;;6.55;85.63
76853;BME280;65825;52.232;10.566;2023-02-11T08:50:20;102060.97;;;6.48;85.62
76853;BME280;65825;52.232;10.566;2023-02-11T08:52:45;102068.88;;;6.56;86.46
76853;BME280;65825;52.232;10.566;2023-02-11T08:55:10;102077.63;;;6.50;85.35
76853;BME280;65825;52.232;10.566;2023-02-11T08:57:35;102079.41;;;6.57;85.35
76853;BME280;65825;52.232;10.566;2023-02-11T09:00:01;102075.00;;;6.52;85.99
76853;BME280;65825;52.232;10.566;2023-02-11T09:02:27;102073.31;;;6.64;85.05
76853;BME280;65825;52.232;10.566;2023-02-11T09:04:52;102072.47;;;6.68;85.38
76853;BME280;65825;52.232;10.566;2023-02-11T09:07:17;102088.19;;;6.64;85.20
76853;BME280;65825;52.232;10.566;2023-02-11T09:09:42;102088.19;;;6.67;84.85
76853;BME280;65825;52.232;10.566;2023-02-11T09:12:08;102075.97;;;6.63;85.32
76853;BME280;65825;52.232;10.566;2023-02-11T09:14:33;102079.41;;;6.59;85.51
76853;BME280;65825;52.232;10.566;2023-02-11T09:16:58;102085.53;;;6.61;85.04
76853;BME280;65825;52.232;10.566;2023-02-11T09:19:23;102084.72;;;6.66;85.84
76853;BME280;65825;52.232;10.566;2023-02-11T09:21:49;102088.16;;;6.61;85.57
76853;BME280;65825;52.232;10.566;2023-02-11T09:24:14;102082.94;;;6.67;85.38
76853;BME280;65825;52.232;10.566;2023-02-11T09:26:41;102094.34;;;6.72;84.71
76853;BME280;65825;52.232;10.566;2023-02-11T09:29:06;102107.47;;;6.69;84.71
76853;BME280;65825;52.232;10.566;2023-02-11T09:31:32;102102.19;;;6.64;85.69
76853;BME280;65825;52.232;10.566;2023-02-11T09:34:00;102110.91;;;6.60;86.03
76853;BME280;65825;52.232;10.566;2023-02-11T09:36:28;102106.47;;;6.50;86.31
76853;BME280;65825;52.232;10.566;2023-02-11T09:38:54;102115.25;;;6.54;86.53
76853;BME280;65825;52.232;10.566;2023-02-11T09:43:48;102135.28;;;6.47;87.21
76853;BME280;65825;52.232;10.566;2023-02-11T09:46:15;102140.63;;;6.58;85.68
76853;BME280;65825;52.232;10.566;2023-02-11T09:48:43;102141.44;;;6.48;86.81
76853;BME280;65825;52.232;10.566;2023-02-11T09:51:19;102133.69;;;6.63;86.58
76853;BME280;65825;52.232;10.566;2023-02-11T09:53:47;102139.84;;;6.72;85.14
76853;BME280;65825;52.232;10.566;2023-02-11T09:56:15;102131.06;;;6.66;86.08
76853;BME280;65825;52.232;10.566;2023-02-11T09:58:42;102135.53;;;6.77;86.50
76853;BME280;65825;52.232;10.566;2023-02-11T10:01:38;102132.88;;;6.76;85.93
76853;BME280;65825;52.232;10.566;2023-02-11T10:06:44;102147.81;;;6.81;85.63
76853;BME280;65825;52.232;10.566;2023-02-11T10:14:50;102153.94;;;6.80;86.67
76853;BME280;65825;52.232;10.566;2023-02-11T10:17:30;102156.53;;;6.82;86.71
76853;BME280;65825;52.232;10.566;2023-02-11T10:23:01;102143.28;;;6.62;88.81
76853;BME280;65825;52.232;10.566;2023-02-11T10:25:36;102145.16;;;6.75;87.99
76853;BME280;65825;52.232;10.566;2023-02-11T10:28:12;102141.59;;;6.72;88.18
76853;BME280;65825;52.232;10.566;2023-02-11T10:30:42;102150.41;;;6.78;88.73
76853;BME280;65825;52.232;10.566;2023-02-11T10:33:23;102138.97;;;6.70;88.51
76853;BME280;65825;52.232;10.566;2023-02-11T10:35:50;102143.31;;;6.68;88.24
76853;BME280;65825;52.232;10.566;2023-02-11T10:38:15;102136.34;;;6.69;88.33
76853;BME280;65825;52.232;10.566;2023-02-11T10:40:41;102136.34;;;6.69;88.42
76853;BME280;65825;52.232;10.566;2023-02-11T10:43:11;102133.63;;;6.58;89.28
76853;BME280;65825;52.232;10.566;2023-02-11T10:45:46;102133.75;;;6.73;88.23
76853;BME280;65825;52.232;10.566;2023-02-11T10:48:39;102150.41;;;6.78;87.85
76853;BME280;65825;52.232;10.566;2023-02-11T10:51:27;102149.59;;;6.90;88.54
76853;BME280;65825;52.232;10.566;2023-02-11T10:56:34;102135.59;;;6.89;87.95
76853;BME280;65825;52.232;10.566;2023-02-11T10:59:11;102144.38;;;6.94;87.13
76853;BME280;65825;52.232;10.566;2023-02-11T11:01:49;102136.47;;;6.93;88.08
76853;BME280;65825;52.232;10.566;2023-02-11T11:04:33;102142.59;;;6.87;88.03
76853;BME280;65825;52.232;10.566;2023-02-11T11:07:24;102152.19;;;6.87;87.19
76853;BME280;65825;52.232;10.566;2023-02-11T11:10:04;102152.19;;;6.87;87.98
76853;BME280;65825;52.232;10.566;2023-02-11T11:12:44;102153.06;;;6.83;88.16
76853;BME280;65825;52.232;10.566;2023-02-11T11:15:21;102152.16;;;6.81;87.74
76853;BME280;65825;52.232;10.566;2023-02-11T11:17:48;102153.97;;;6.89;87.60
76853;BME280;65825;52.232;10.566;2023-02-11T11:20:25;102150.50;;;6.90;86.92
76853;BME280;65825;52.232;10.566;2023-02-11T11:23:06;102154.00;;;6.94;87.70
76853;BME280;65825;52.232;10.566;2023-02-11T11:25:34;102161.06;;;7.02;87.32
76853;BME280;65825;52.232;10.566;2023-02-11T11:28:04;102160.97;;;6.92;87.54
76853;BME280;65825;52.232;10.566;2023-02-11T11:30:39;102148.81;;;7.01;88.21
76853;BME280;65825;52.232;10.566;2023-02-11T11:33:19;102149.63;;;6.96;87.59
76853;BME280;65825;52.232;10.566;2023-02-11T11:36:02;102146.13;;;6.95;87.48
76853;BME280;65825;52.232;10.566;2023-02-11T11:38:29;102161.16;;;7.16;87.67
76853;BME280;65825;52.232;10.566;2023-02-11T11:41:24;102155.03;;;7.14;87.41
76853;BME280;65825;52.232;10.566;2023-02-11T11:43:54;102154.94;;;7.08;87.03
76853;BME280;65825;52.232;10.566;2023-02-11T11:46:25;102156.72;;;7.10;87.30
76853;BME280;65825;52.232;10.566;2023-02-11T11:48:55;102156.75;;;7.13;87.30
76853;BME280;65825;52.232;10.566;2023-02-11T11:51:23;102148.91;;;7.16;87.82
76853;BME280;65825;52.232;10.566;2023-02-11T11:54:17;102163.81;;;7.25;86.98
76853;BME280;65825;52.232;10.566;2023-02-11T11:56:50;102165.56;;;7.24;87.29
76853;BME280;65825;52.232;10.566;2023-02-11T11:59:17;102166.50;;;7.35;86.82
76853;BME280;65825;52.232;10.566;2023-02-11T12:01:54;102161.22;;;7.29;85.97
76853;BME280;65825;52.232;10.566;2023-02-11T12:12:38;102179.56;;;7.22;86.70
76853;BME280;65825;52.232;10.566;2023-02-11T12:18:13;102195.28;;;7.16;87.11
76853;BME280;65825;52.232;10.566;2023-02-11T12:23:34;102193.56;;;7.21;87.06
76853;BME280;65825;52.232;10.566;2023-02-11T12:26:17;102195.34;;;7.25;87.28
76853;BME280;65825;52.232;10.566;2023-02-11T12:28:56;102205.00;;;7.27;86.82
76853;BME280;65825;52.232;10.566;2023-02-11T12:39:42;102189.13;;;7.15;87.52
76853;BME280;65825;52.232;10.566;2023-02-11T12:45:20;102194.56;;;7.42;87.82
76853;BME280;65825;52.232;10.566;2023-02-11T12:48:04;102199.81;;;7.42;87.25
76853;BME280;65825;52.232;10.566;2023-02-11T12:50:56;102189.31;;;7.41;87.69
76853;BME280;65825;52.232;10.566;2023-02-11T12:56:28;102173.66;;;7.69;85.96
76853;BME280;65825;52.232;10.566;2023-02-11T12:59:00;102184.09;;;7.57;86.56
76853;BME280;65825;52.232;10.566;2023-02-11T13:01:28;102186.72;;;7.48;87.02
76853;BME280;65825;52.232;10.566;2023-02-11T13:04:00;102188.44;;;7.46;87.30
76853;BME280;65825;52.232;10.566;2023-02-11T13:06:38;102199.75;;;7.36;87.82
76853;BME280;65825;52.232;10.566;2023-02-11T13:09:11;102198.09;;;7.47;87.31
76853;BME280;65825;52.232;10.566;2023-02-11T13:11:44;102191.09;;;7.54;86.24
76853;BME280;65825;52.232;10.566;2023-02-11T13:14:35;102194.63;;;7.54;87.04
76853;BME280;65825;52.232;10.566;2023-02-11T13:17:09;102191.13;;;7.57;86.84
76853;BME280;65825;52.232;10.566;2023-02-11T13:19:43;102185.84;;;7.51;86.20
76853;BME280;65825;52.232;10.566;2023-02-11T13:22:40;102193.69;;;7.43;87.32
76853;BME280;65825;52.232;10.566;2023-02-11T13:30:36;102189.38;;;7.54;86.13
76853;BME280;65825;52.232;10.566;2023-02-11T13:33:16;102174.56;;;7.74;85.38
76853;BME280;65825;52.232;10.566;2023-02-11T13:35:48;102178.88;;;7.62;86.13
76853;BME280;65825;52.232;10.566;2023-02-11T13:38:33;102197.28;;;7.65;85.41
76853;BME280;65825;52.232;10.566;2023-02-11T13:41:16;102184.16;;;7.72;85.28
76853;BME280;65825;52.232;10.566;2023-02-11T13:43:42;102197.31;;;7.68;85.39
76853;BME280;65825;52.232;10.566;2023-02-11T13:46:10;102198.19;;;7.67;86.01
76853;BME280;65825;52.232;10.566;2023-02-11T13:48:40;102186.78;;;7.68;85.42
76853;BME280;65825;52.232;10.566;2023-02-11T13:51:13;102196.44;;;7.72;85.51
76853;BME280;65825;52.232;10.566;2023-02-11T13:53:53;102195.47;;;7.55;85.60
76853;BME280;65825;52.232;10.566;2023-02-11T13:56:41;102197.22;;;7.47;86.51
76853;BME280;65825;52.232;10.566;2023-02-11T14:02:04;102207.84;;;7.71;85.57
76853;BME280;65825;52.232;10.566;2023-02-11T14:10:52;102208.56;;;7.40;87.68
76853;BME280;65825;52.232;10.566;2023-02-11T14:13:31;102205.16;;;7.60;86.01
76853;BME280;65825;52.232;10.566;2023-02-11T14:16:10;102208.63;;;7.55;86.14
76853;BME280;65825;52.232;10.566;2023-02-11T14:23:50;102207.69;;;7.41;87.40
76853;BME280;65825;52.232;10.566;2023-02-11T14:28:48;102213.78;;;7.35;87.54